Time;durP1;ratioP1;P1;durP2;ratioP2;P2;SDS_P1;SDS_P2;PMS_P1;PMS_P2;Temp;Humidity;BMP_temperature;BMP_pressure;BME280_temperature;BME280_humidity;BME280_pressure;Samples;Min_cycle;Max_cycle;Signal;HPM_P1;HPM_P2
2021/09/27 04:31:59;;;;;;;19.23;15.57;;;14.80;99.90;;;;;;5727428;22;20500;-76
2021/09/27 04:34:34;;;;;;;21.73;15.37;;;14.80;99.90;;;;;;5031393;28;20551;-78
2021/09/27 04:37:01;;;;;;;19.30;14.60;;;14.70;99.90;;;;;;5022667;28;21260;-78
2021/09/27 04:39:29;;;;;;;18.10;14.63;;;14.70;99.90;;;;;;5032811;28;20474;-79
2021/09/27 04:42:25;;;;;;;16.67;13.83;;;14.60;99.90;;;;;;5032495;28;20975;-79
2021/09/27 04:45:28;;;;;;;15.30;13.20;;;14.60;99.90;;;;;;5032661;28;20412;-78
2021/09/27 04:48:31;;;;;;;18.23;14.73;;;14.50;99.90;;;;;;5032269;28;20553;-78
2021/09/27 04:51:10;;;;;;;21.03;14.60;;;14.40;99.90;;;;;;5032347;28;20428;-79
2021/09/27 04:54:10;;;;;;;16.90;13.90;;;14.30;99.90;;;;;;5032435;28;20559;-78
2021/09/27 04:56:58;;;;;;;17.40;13.93;;;14.30;99.90;;;;;;4961413;28;20454;-79
2021/09/27 04:59:35;;;;;;;19.10;13.33;;;14.20;99.90;;;;;;5032311;28;20469;-78
2021/09/27 05:02:18;;;;;;;21.80;15.93;;;14.10;99.90;;;;;;5031805;28;20424;-79
2021/09/27 05:04:48;;;;;;;17.90;13.67;;;14.10;99.90;;;;;;5032342;28;20472;-78
2021/09/27 05:07:44;;;;;;;17.30;15.43;;;14.00;99.90;;;;;;5031901;28;20416;-80
2021/09/27 05:10:17;;;;;;;19.17;15.03;;;13.90;99.90;;;;;;5031990;28;20539;-79
2021/09/27 05:12:51;;;;;;;21.10;16.00;;;13.90;99.90;;;;;;5032103;28;20470;-80
2021/09/27 05:15:26;;;;;;;22.20;14.97;;;13.80;99.90;;;;;;5032070;28;20491;-78
2021/09/27 05:18:16;;;;;;;21.13;15.77;;;13.80;99.90;;;;;;5031791;28;20448;-76
2021/09/27 05:21:08;;;;;;;21.33;15.20;;;13.80;99.90;;;;;;5031961;28;20413;-75
2021/09/27 05:24:03;;;;;;;22.17;14.80;;;13.80;99.90;;;;;;5031880;28;20512;-76
2021/09/27 05:27:04;;;;;;;19.73;14.73;;;13.70;99.90;;;;;;5031666;28;20511;-76
2021/09/27 05:29:48;;;;;;;21.97;15.00;;;13.70;99.90;;;;;;5031719;28;20419;-75
2021/09/27 05:32:27;;;;;;;20.53;14.27;;;13.70;99.90;;;;;;5031359;28;20437;-76
2021/09/27 05:35:02;;;;;;;21.60;15.87;;;13.70;99.90;;;;;;5031812;28;20516;-75
2021/09/27 05:37:41;;;;;;;23.70;17.20;;;13.70;99.90;;;;;;5031533;28;20447;-76
2021/09/27 05:40:32;;;;;;;21.20;15.00;;;13.70;99.90;;;;;;5031603;28;20421;-76
2021/09/27 05:43:19;;;;;;;22.90;15.80;;;13.70;99.90;;;;;;5031484;28;20432;-76
2021/09/27 05:46:03;;;;;;;25.73;15.90;;;13.80;99.90;;;;;;5031802;28;20462;-76
2021/09/27 05:48:40;;;;;;;22.57;14.70;;;14.10;99.90;;;;;;5013576;28;20468;-75
2021/09/27 05:51:07;;;;;;;14.13;12.50;;;14.50;99.90;;;;;;5031569;28;20424;-76
2021/09/27 05:53:58;;;;;;;18.10;13.70;;;15.30;99.90;;;;;;5031333;28;20427;-76
2021/09/27 05:56:30;;;;;;;13.20;11.07;;;16.20;99.90;;;;;;5031475;28;20434;-76
2021/09/27 05:59:10;;;;;;;12.87;11.53;;;17.20;99.90;;;;;;5030913;28;20464;-77
2021/09/27 06:01:42;;;;;;;15.30;11.37;;;17.10;99.90;;;;;;5031489;28;20806;-76
2021/09/27 06:04:32;;;;;;;13.80;11.50;;;17.10;99.90;;;;;;5031334;28;20424;-76
2021/09/27 06:07:07;;;;;;;16.37;11.27;;;17.80;99.90;;;;;;5031292;28;20856;-76
2021/09/27 06:09:54;;;;;;;12.70;11.23;;;19.00;99.90;;;;;;5031471;28;20808;-76
2021/09/27 06:12:23;;;;;;;11.60;10.40;;;20.00;99.90;;;;;;5031395;28;20433;-77
2021/09/27 06:14:54;;;;;;;13.27;10.27;;;20.60;99.90;;;;;;5031264;28;20934;-77
2021/09/27 06:17:47;;;;;;;12.27;10.63;;;21.40;99.90;;;;;;5031232;28;20460;-76
2021/09/27 06:20:20;;;;;;;12.33;10.40;;;22.00;99.90;;;;;;5031088;28;20417;-76
2021/09/27 06:23:12;;;;;;;11.23;9.17;;;23.00;99.90;;;;;;5031279;28;20425;-76
2021/09/27 06:25:46;;;;;;;10.27;9.27;;;23.20;99.90;;;;;;5031436;28;20471;-76
2021/09/27 06:28:18;;;;;;;17.63;8.77;;;23.60;99.90;;;;;;5031074;28;20416;-76
2021/09/27 06:31:00;;;;;;;10.43;9.20;;;24.30;99.90;;;;;;5031181;28;20409;-76
2021/09/27 06:33:45;;;;;;;9.90;8.90;;;24.40;99.90;;;;;;5031217;28;20952;-77
2021/09/27 06:36:20;;;;;;;11.33;8.73;;;24.60;99.90;;;;;;5031261;28;20812;-76
2021/09/27 06:38:50;;;;;;;10.20;9.20;;;25.20;99.90;;;;;;5031117;28;20459;-77
2021/09/27 06:41:19;;;;;;;10.90;9.00;;;25.90;99.90;;;;;;5033054;28;20483;-76
2021/09/27 06:43:46;;;;;;;10.23;9.33;;;26.00;99.90;;;;;;5015643;28;20470;-77
2021/09/27 06:46:12;;;;;;;8.43;7.73;;;25.80;99.90;;;;;;5033360;28;20408;-76
2021/09/27 06:48:37;;;;;;;10.07;9.07;;;26.00;99.90;;;;;;5033056;28;20417;-76
2021/09/27 06:51:03;;;;;;;9.27;8.50;;;26.70;99.90;;;;;;5015675;28;20813;-76
2021/09/27 06:53:30;;;;;;;9.40;8.60;;;26.60;99.90;;;;;;5033223;28;20170;-77
2021/09/27 06:55:58;;;;;;;9.37;8.47;;;26.00;99.90;;;;;;5034377;28;20216;-76
2021/09/27 06:58:25;;;;;;;10.70;9.70;;;25.50;99.90;;;;;;5034213;28;20456;-76
2021/09/27 07:00:54;;;;;;;12.50;8.63;;;25.40;99.90;;;;;;5034622;28;20946;-77
2021/09/27 07:03:20;;;;;;;9.73;8.77;;;25.20;99.90;;;;;;5034410;28;20758;-77
2021/09/27 07:05:46;;;;;;;9.73;8.83;;;25.70;99.90;;;;;;5016822;28;20427;-77
2021/09/27 07:08:12;;;;;;;9.17;8.23;;;26.20;99.90;;;;;;5034252;28;20179;-76
2021/09/27 07:10:38;;;;;;;9.10;8.40;;;26.20;99.90;;;;;;5034220;28;20181;-76
2021/09/27 07:13:03;;;;;;;8.07;7.37;;;26.20;99.90;;;;;;5034376;28;20423;-77
2021/09/27 07:15:29;;;;;;;9.73;8.90;;;25.90;99.90;;;;;;5034382;28;20554;-76
2021/09/27 07:17:55;;;;;;;8.67;7.97;;;25.20;99.90;;;;;;5034108;28;20207;-76
2021/09/27 07:20:25;;;;;;;9.30;8.50;;;24.60;99.90;;;;;;5034260;28;20185;-77
2021/09/27 07:22:51;;;;;;;8.30;7.60;;;24.10;99.90;;;;;;5034247;28;20190;-76
2021/09/27 07:25:17;;;;;;;9.50;8.37;;;23.20;99.90;;;;;;5034061;28;20409;-76
2021/09/27 07:27:44;;;;;;;9.13;8.33;;;23.20;99.90;;;;;;5016170;28;20459;-77
2021/09/27 07:30:11;;;;;;;9.53;8.63;;;23.30;99.90;;;;;;5033993;28;20401;-76
2021/09/27 07:32:38;;;;;;;7.73;7.10;;;23.30;99.90;;;;;;5033750;28;20539;-77
2021/09/27 07:35:05;;;;;;;9.60;8.70;;;23.50;99.90;;;;;;5034013;28;20453;-77
2021/09/27 07:37:31;;;;;;;7.87;7.17;;;23.60;99.90;;;;;;5033636;28;20448;-76
2021/09/27 07:39:56;;;;;;;7.80;7.00;;;23.60;99.90;;;;;;5033990;28;20412;-76
2021/09/27 07:42:22;;;;;;;12.23;7.73;;;23.70;99.90;;;;;;5033689;28;20201;-76
2021/09/27 07:44:48;;;;;;;8.77;7.97;;;23.70;99.90;;;;;;5033818;28;20537;-76
2021/09/27 07:47:13;;;;;;;8.37;7.67;;;23.90;99.90;;;;;;5033558;28;20252;-76
2021/09/27 07:49:39;;;;;;;7.83;7.13;;;23.70;99.90;;;;;;5033662;28;20178;-76
2021/09/27 07:52:04;;;;;;;8.07;6.70;;;23.60;99.90;;;;;;5033666;28;20678;-77
2021/09/27 07:54:30;;;;;;;8.90;8.03;;;23.80;99.90;;;;;;5033538;28;20765;-77
2021/09/27 07:56:56;;;;;;;7.33;6.70;;;24.20;99.90;;;;;;5033561;28;20202;-76
2021/09/27 07:59:22;;;;;;;9.47;7.37;;;24.30;99.90;;;;;;5033252;28;20262;-76
2021/09/27 08:01:48;;;;;;;6.50;5.90;;;24.30;99.90;;;;;;5033712;28;20194;-77
2021/09/27 08:04:15;;;;;;;7.00;6.30;;;24.50;99.90;;;;;;5033199;28;20412;-76
2021/09/27 08:06:42;;;;;;;8.43;6.87;;;24.90;99.90;;;;;;5033572;28;20162;-76
2021/09/27 08:09:09;;;;;;;6.50;5.83;;;25.20;99.90;;;;;;5033050;28;20546;-76
2021/09/27 08:11:43;;;;;;;7.17;6.37;;;25.50;99.90;;;;;;5033189;28;20436;-77
2021/09/27 08:14:09;;;;;;;7.10;6.10;;;25.70;99.90;;;;;;5033130;28;20876;-76
2021/09/27 08:16:35;;;;;;;5.23;4.83;;;25.90;99.90;;;;;;5033391;28;20479;-77
2021/09/27 08:19:01;;;;;;;5.57;5.07;;;25.80;99.90;;;;;;5032785;28;20457;-77
2021/09/27 08:21:26;;;;;;;5.80;4.70;;;25.80;99.90;;;;;;5033022;28;20190;-77
2021/09/27 08:23:52;;;;;;;5.50;5.00;;;25.90;99.90;;;;;;5032966;28;20257;-77
2021/09/27 08:26:18;;;;;;;4.17;3.73;;;26.00;99.90;;;;;;5032982;28;20358;-76
2021/09/27 08:28:45;;;;;;;4.07;3.77;;;26.10;99.90;;;;;;5032712;28;20186;-77
2021/09/27 08:31:17;;;;;;;7.60;3.63;;;26.40;99.90;;;;;;5032773;28;20799;-77
2021/09/27 08:33:43;;;;;;;3.30;3.00;;;26.80;99.90;;;;;;5015156;28;20498;-77
2021/09/27 08:36:12;;;;;;;3.87;3.60;;;26.70;99.90;;;;;;5032713;28;20416;-76
2021/09/27 08:38:38;;;;;;;4.77;4.33;;;26.60;99.90;;;;;;5032520;28;20460;-77
2021/09/27 08:41:09;;;;;;;3.00;2.87;;;26.70;99.90;;;;;;5032648;28;20443;-77
2021/09/27 08:43:48;;;;;;;6.70;3.80;;;26.70;99.90;;;;;;5032751;28;20443;-77
2021/09/27 08:46:26;;;;;;;4.83;4.13;;;26.70;99.90;;;;;;5032583;28;20925;-77
2021/09/27 08:49:15;;;;;;;4.33;3.70;;;26.60;99.90;;;;;;5032628;28;20913;-76
2021/09/27 08:51:41;;;;;;;4.60;3.30;;;26.80;99.90;;;;;;5032500;28;20436;-77
2021/09/27 08:54:16;;;;;;;3.33;3.03;;;26.30;99.90;;;;;;5032387;28;20500;-77
2021/09/27 08:56:49;;;;;;;3.77;3.57;;;26.60;99.90;;;;;;5032565;28;20412;-77
2021/09/27 08:59:44;;;;;;;3.77;2.97;;;26.90;99.90;;;;;;5014443;28;20470;-77
2021/09/27 09:02:27;;;;;;;2.70;2.50;;;26.80;99.90;;;;;;5031609;28;20440;-76
2021/09/27 09:05:21;;;;;;;3.47;3.17;;;26.70;99.90;;;;;;5032417;28;20423;-77
2021/09/27 09:08:08;;;;;;;3.93;3.63;;;27.10;99.90;;;;;;5032142;28;20463;-76
2021/09/27 09:10:53;;;;;;;4.10;3.77;;;27.30;99.90;;;;;;5032186;28;20558;-77
2021/09/27 09:13:32;;;;;;;4.63;3.13;;;27.50;99.90;;;;;;5031993;28;20412;-76
2021/09/27 09:16:05;;;;;;;3.97;3.60;;;27.30;99.90;;;;;;5032240;28;20526;-76
2021/09/27 09:18:37;;;;;;;3.90;3.60;;;27.50;99.90;;;;;;5031680;28;20518;-77
2021/09/27 09:21:39;;;;;;;3.93;3.63;;;27.50;99.90;;;;;;5031979;28;20507;-77
2021/09/27 09:24:12;;;;;;;4.30;4.00;;;27.40;99.90;;;;;;5018651;28;20478;-76
2021/09/27 09:26:42;;;;;;;3.23;2.93;;;27.70;99.90;;;;;;5032036;28;20495;-76
2021/09/27 09:29:09;;;;;;;7.87;3.60;;;28.10;99.90;;;;;;5031659;28;20803;-77
2021/09/27 09:31:44;;;;;;;3.17;2.87;;;27.30;99.90;;;;;;5031614;28;20825;-76
2021/09/27 09:34:21;;;;;;;3.13;2.70;;;26.40;99.90;;;;;;5031626;28;20420;-77
2021/09/27 09:36:53;;;;;;;2.80;2.70;;;26.00;99.90;;;;;;5031799;28;20473;-77
2021/09/27 09:39:21;;;;;;;5.80;2.90;;;25.60;99.90;;;;;;5031286;28;20471;-76
2021/09/27 09:41:50;;;;;;;2.90;2.70;;;25.70;99.90;;;;;;5031707;28;20436;-76
2021/09/27 09:44:37;;;;;;;3.77;3.47;;;25.60;99.90;;;;;;5031552;28;20978;-77
2021/09/27 09:47:09;;;;;;;2.90;2.70;;;25.20;99.90;;;;;;5031705;28;20417;-77
2021/09/27 09:49:52;;;;;;;4.83;2.70;;;25.00;99.90;;;;;;5031630;28;20405;-76
2021/09/27 09:52:41;;;;;;;3.93;3.63;;;24.60;99.90;;;;;;5031442;28;20436;-76
2021/09/27 09:55:28;;;;;;;3.07;2.77;;;24.30;99.90;;;;;;5023506;28;20425;-77
2021/09/27 09:58:08;;;;;;;3.83;2.50;;;24.20;99.90;;;;;;5031240;28;20487;-76
2021/09/27 10:00:45;;;;;;;3.00;2.30;;;24.30;99.90;;;;;;5031513;28;20475;-75
2021/09/27 10:03:14;;;;;;;3.50;3.20;;;24.40;99.90;;;;;;5031325;28;20408;-77
2021/09/27 10:05:52;;;;;;;2.90;2.70;;;25.00;99.90;;;;;;5031487;28;20826;-76
2021/09/27 10:08:24;;;;;;;2.90;2.70;;;25.70;99.90;;;;;;5031148;28;20467;-77
2021/09/27 10:11:14;;;;;;;2.20;2.03;;;26.00;99.90;;;;;;5013670;28;20466;-77
2021/09/27 10:13:52;;;;;;;3.00;2.80;;;25.50;99.90;;;;;;5031462;28;20512;-76
2021/09/27 10:16:40;;;;;;;3.10;2.57;;;25.30;99.90;;;;;;5035503;28;20416;-76
2021/09/27 10:19:28;;;;;;;2.60;2.47;;;25.70;99.90;;;;;;5035163;28;20895;-76
2021/09/27 10:22:08;;;;;;;2.70;2.60;;;25.70;99.90;;;;;;5035442;28;20511;-75
2021/09/27 10:24:41;;;;;;;3.10;2.90;;;25.50;99.90;;;;;;5017495;28;20420;-76
2021/09/27 10:27:35;;;;;;;2.87;2.67;;;26.00;99.90;;;;;;5035206;28;20416;-76
2021/09/27 10:30:24;;;;;;;3.17;2.57;;;26.60;99.90;;;;;;5035264;28;20404;-76
2021/09/27 10:32:53;;;;;;;3.27;2.90;;;26.50;99.90;;;;;;5035081;28;20448;-76
2021/09/27 10:35:40;;;;;;;4.07;3.37;;;26.50;99.90;;;;;;5017278;28;20425;-76
2021/09/27 10:38:12;;;;;;;3.00;2.70;;;26.70;99.90;;;;;;5017234;28;20559;-76
2021/09/27 10:40:40;;;;;;;3.63;3.33;;;26.50;99.90;;;;;;5035086;28;20420;-75
2021/09/27 10:43:11;;;;;;;3.03;2.83;;;26.40;99.90;;;;;;5034915;28;20401;-77
2021/09/27 10:45:41;;;;;;;4.90;2.37;;;26.40;99.90;;;;;;5034913;28;20470;-76
2021/09/27 10:48:07;;;;;;;2.60;2.43;;;26.60;99.90;;;;;;5034734;28;20492;-77
2021/09/27 10:50:38;;;;;;;2.50;2.30;;;26.40;99.90;;;;;;5034635;28;20499;-76
2021/09/27 10:53:15;;;;;;;2.87;2.70;;;26.30;99.90;;;;;;5034862;28;20765;-77
2021/09/27 10:55:43;;;;;;;2.50;2.30;;;25.80;99.90;;;;;;5034805;28;20419;-77
2021/09/27 10:58:11;;;;;;;5.97;2.80;;;25.80;99.90;;;;;;5034627;28;20972;-77
2021/09/27 11:00:49;;;;;;;2.90;2.70;;;26.00;99.90;;;;;;5034697;28;20834;-76
2021/09/27 11:03:52;;;;;;;4.30;2.70;;;25.60;99.90;;;;;;5034539;28;20405;-77
2021/09/27 11:06:34;;;;;;;3.97;2.60;;;26.00;99.90;;;;;;5034437;28;20411;-78
2021/09/27 11:09:30;;;;;;;2.57;2.47;;;26.40;99.90;;;;;;5034309;28;20480;-76
2021/09/27 11:12:37;;;;;;;2.90;2.70;;;26.70;99.90;;;;;;5034515;28;20483;-77
2021/09/27 11:15:15;;;;;;;3.00;2.80;;;26.80;99.90;;;;;;5021322;28;20793;-77
2021/09/27 11:17:47;;;;;;;4.60;2.50;;;26.20;99.90;;;;;;5034271;28;20544;-76
2021/09/27 11:20:13;;;;;;;3.83;3.00;;;26.10;99.90;;;;;;5034171;28;20500;-77
2021/09/27 11:23:01;;;;;;;2.60;2.50;;;26.40;99.90;;;;;;5034086;28;20519;-77
2021/09/27 11:25:26;;;;;;;3.67;2.37;;;26.40;99.90;;;;;;5003557;28;20416;-76
2021/09/27 11:28:06;;;;;;;2.87;2.50;;;26.60;99.90;;;;;;5016305;28;20425;-76
2021/09/27 11:30:38;;;;;;;1.80;1.70;;;26.30;99.90;;;;;;5016151;28;20186;-76
2021/09/27 11:33:17;;;;;;;1.80;1.70;;;26.10;99.90;;;;;;5034097;28;20478;-77
2021/09/27 11:35:44;;;;;;;2.90;1.97;;;26.00;99.90;;;;;;5034199;28;20491;-77
2021/09/27 11:38:31;;;;;;;2.13;2.00;;;25.90;99.90;;;;;;5033830;28;20805;-77
2021/09/27 11:41:22;;;;;;;2.40;2.20;;;26.20;99.90;;;;;;5034234;28;20436;-76
2021/09/27 11:44:08;;;;;;;2.30;2.13;;;26.20;99.90;;;;;;5033443;28;20428;-77
2021/09/27 11:46:37;;;;;;;5.73;2.40;;;25.80;99.90;;;;;;5033947;28;20545;-77
2021/09/27 11:49:19;;;;;;;2.13;2.03;;;25.70;99.90;;;;;;5033593;28;20773;-77
2021/09/27 11:52:11;;;;;;;2.20;2.10;;;25.40;99.90;;;;;;5033703;28;20796;-77
2021/09/27 11:54:46;;;;;;;2.20;2.10;;;25.10;99.90;;;;;;5033672;28;20417;-77
2021/09/27 11:57:39;;;;;;;2.17;2.07;;;25.00;99.90;;;;;;5033473;28;20435;-78
2021/09/27 12:00:22;;;;;;;1.63;1.53;;;24.90;99.90;;;;;;5033450;28;20561;-78
2021/09/27 12:03:17;;;;;;;6.73;2.37;;;24.70;99.90;;;;;;5033523;28;20437;-77
2021/09/27 12:05:44;;;;;;;2.93;2.30;;;24.80;99.90;;;;;;5033434;28;20474;-77
2021/09/27 12:08:32;;;;;;;1.83;1.73;;;24.90;99.90;;;;;;5033046;28;20483;-77
2021/09/27 12:11:13;;;;;;;2.43;2.13;;;25.00;99.90;;;;;;5033401;28;20441;-77
2021/09/27 12:13:51;;;;;;;2.03;1.93;;;25.20;99.90;;;;;;5033145;28;20452;-77
2021/09/27 12:16:23;;;;;;;3.37;2.10;;;25.00;99.90;;;;;;5033309;28;20791;-76
2021/09/27 12:18:54;;;;;;;2.90;2.60;;;25.10;99.90;;;;;;5032983;28;20471;-76
2021/09/27 12:21:23;;;;;;;2.93;2.30;;;25.20;99.90;;;;;;5033216;28;20487;-77
2021/09/27 12:23:57;;;;;;;2.70;2.50;;;25.20;99.90;;;;;;5035771;28;20409;-77
2021/09/27 12:26:30;;;;;;;2.90;2.00;;;25.00;99.90;;;;;;5032027;28;20953;-76
2021/09/27 12:29:08;;;;;;;2.40;2.20;;;24.90;99.90;;;;;;5033137;28;20182;-76
2021/09/27 12:31:34;;;;;;;2.30;2.10;;;24.70;99.90;;;;;;5033046;28;20478;-76
2021/09/27 12:34:25;;;;;;;2.10;1.90;;;24.50;99.90;;;;;;5033040;28;20909;-77
2021/09/27 12:36:52;;;;;;;2.20;2.10;;;24.40;99.90;;;;;;5029246;28;20217;-76
2021/09/27 12:39:23;;;;;;;2.07;1.97;;;24.60;99.90;;;;;;5032573;28;20486;-77
2021/09/27 12:41:51;;;;;;;2.87;2.53;;;24.60;99.90;;;;;;5032699;28;20444;-76
2021/09/27 12:44:27;;;;;;;3.53;1.83;;;24.60;99.90;;;;;;5032707;28;20440;-76
2021/09/27 12:46:56;;;;;;;7.70;2.50;;;24.50;99.90;;;;;;5032858;28;20404;-77
2021/09/27 12:49:59;;;;;;;2.90;2.30;;;24.50;99.90;;;;;;5032256;28;20837;-77
2021/09/27 12:52:54;;;;;;;3.20;1.97;;;24.60;99.90;;;;;;5032459;28;20818;-76
2021/09/27 12:55:25;;;;;;;2.00;1.90;;;24.50;99.90;;;;;;5032379;28;20413;-77
2021/09/27 12:57:56;;;;;;;4.10;2.50;;;24.50;99.90;;;;;;5032405;28;21104;-76
2021/09/27 13:00:32;;;;;;;4.33;2.00;;;24.40;99.90;;;;;;5032296;28;20470;-77
2021/09/27 13:02:59;;;;;;;2.60;2.40;;;24.30;99.90;;;;;;5032456;28;20889;-77
2021/09/27 13:05:27;;;;;;;2.13;1.70;;;24.20;99.90;;;;;;5014394;28;20409;-77
2021/09/27 13:07:59;;;;;;;2.27;2.00;;;24.00;99.90;;;;;;5032066;28;20474;-77
2021/09/27 13:10:58;;;;;;;2.00;1.90;;;23.90;99.90;;;;;;5031868;28;20503;-76
2021/09/27 13:13:32;;;;;;;2.40;2.20;;;23.70;99.90;;;;;;5020549;28;20427;-77
2021/09/27 13:16:12;;;;;;;1.77;1.67;;;23.50;99.90;;;;;;5014444;28;20413;-76
2021/09/27 13:18:45;;;;;;;2.53;2.40;;;23.50;99.90;;;;;;5032745;28;20452;-78
2021/09/27 13:21:25;;;;;;;3.00;2.40;;;23.20;99.90;;;;;;5015303;28;20981;-76
2021/09/27 13:24:00;;;;;;;5.00;2.90;;;23.10;99.90;;;;;;5032101;28;20413;-77
2021/09/27 13:26:44;;;;;;;2.43;2.33;;;23.00;99.90;;;;;;5028900;28;20417;-76
2021/09/27 13:29:26;;;;;;;3.40;2.63;;;22.80;99.90;;;;;;5028854;28;20417;-77
2021/09/27 13:32:18;;;;;;;6.40;2.10;;;22.60;99.90;;;;;;5032210;28;20574;-77
2021/09/27 13:35:06;;;;;;;4.80;3.00;;;22.70;99.90;;;;;;5014124;28;20425;-76
2021/09/27 13:37:41;;;;;;;3.13;2.80;;;22.80;99.90;;;;;;5031512;28;20456;-76
2021/09/27 13:40:21;;;;;;;3.17;2.50;;;22.90;99.90;;;;;;5031537;28;20470;-75
2021/09/27 13:42:51;;;;;;;7.00;3.20;;;23.10;99.90;;;;;;5031412;28;20999;-77
2021/09/27 13:45:30;;;;;;;4.30;3.10;;;23.20;99.90;;;;;;5031447;28;20409;-74
2021/09/27 13:47:55;;;;;;;6.20;3.00;;;23.30;99.90;;;;;;5031170;28;20412;-77
2021/09/27 13:50:21;;;;;;;3.00;2.50;;;23.40;99.90;;;;;;5037543;28;20929;-77
2021/09/27 13:53:01;;;;;;;3.30;3.00;;;23.50;99.90;;;;;;5031537;28;20193;-77
2021/09/27 13:55:28;;;;;;;4.70;2.93;;;23.60;99.90;;;;;;5031456;28;20545;-77
2021/09/27 13:57:54;;;;;;;2.67;2.47;;;23.60;99.90;;;;;;5031548;28;20452;-77
2021/09/27 14:00:20;;;;;;;3.03;2.53;;;23.70;99.90;;;;;;5031192;28;20783;-76
2021/09/27 14:02:45;;;;;;;2.73;2.53;;;23.60;99.90;;;;;;5030851;28;20269;-77
2021/09/27 14:05:12;;;;;;;3.10;2.50;;;23.50;99.90;;;;;;5031416;28;20177;-77
2021/09/27 14:07:38;;;;;;;3.20;3.00;;;23.40;99.90;;;;;;5031558;28;20217;-76
2021/09/27 14:10:05;;;;;;;3.50;3.20;;;23.40;99.90;;;;;;5031391;28;20424;-77
2021/09/27 14:12:31;;;;;;;2.70;2.50;;;23.40;99.90;;;;;;5031278;28;20252;-78
2021/09/27 14:14:57;;;;;;;2.80;2.40;;;23.30;99.90;;;;;;5031299;28;20413;-77
2021/09/27 14:17:23;;;;;;;3.83;2.30;;;23.20;99.90;;;;;;5031160;28;20678;-76
2021/09/27 14:19:50;;;;;;;2.83;2.50;;;23.20;99.90;;;;;;5013645;28;20166;-77
2021/09/27 14:22:17;;;;;;;3.07;2.17;;;23.20;99.90;;;;;;5031198;28;20428;-76
2021/09/27 14:24:42;;;;;;;2.65;2.45;;;23.30;99.90;;;;;;5031265;28;20429;-77
2021/09/27 14:27:08;;;;;;;2.20;2.10;;;23.20;99.90;;;;;;5031110;28;20205;-77
2021/09/27 14:29:33;;;;;;;4.65;2.58;;;23.10;99.90;;;;;;5030224;28;20428;-76
2021/09/27 14:31:59;;;;;;;3.93;2.53;;;23.00;99.90;;;;;;5030943;28;20217;-77
2021/09/27 14:34:25;;;;;;;3.03;2.73;;;23.00;99.90;;;;;;5031091;28;20186;-77
2021/09/27 14:36:50;;;;;;;6.80;2.30;;;22.90;99.90;;;;;;5013715;28;20182;-78
2021/09/27 14:39:17;;;;;;;2.53;2.43;;;23.00;99.90;;;;;;5030799;28;20217;-77
2021/09/27 14:41:43;;;;;;;8.37;6.53;;;23.00;99.90;;;;;;5013481;28;20674;-77
2021/09/27 14:44:12;;;;;;;5.73;4.33;;;23.00;99.90;;;;;;5030670;28;20433;-77
2021/09/27 14:46:38;;;;;;;7.83;2.53;;;23.00;99.90;;;;;;5030201;28;20175;-77
2021/09/27 14:49:04;;;;;;;4.03;2.53;;;23.00;99.90;;;;;;5031032;28;20445;-77
2021/09/27 14:51:29;;;;;;;2.40;2.30;;;23.00;99.90;;;;;;5030964;28;20475;-77
2021/09/27 14:53:55;;;;;;;3.77;2.77;;;23.00;99.90;;;;;;5031132;28;20272;-77
2021/09/27 14:56:21;;;;;;;3.87;3.10;;;23.00;99.90;;;;;;5031032;28;20707;-77
2021/09/27 14:58:46;;;;;;;8.70;2.13;;;23.00;99.90;;;;;;5030921;28;20241;-76
2021/09/27 15:01:15;;;;;;;2.67;2.50;;;23.00;99.90;;;;;;5033513;28;20196;-77
2021/09/27 15:03:41;;;;;;;2.90;2.70;;;22.90;99.90;;;;;;5034698;28;20709;-77
2021/09/27 15:06:06;;;;;;;2.67;2.47;;;22.80;99.90;;;;;;5034506;28;20421;-76
2021/09/27 15:08:33;;;;;;;13.73;2.20;;;22.90;99.90;;;;;;5016736;28;20192;-77
2021/09/27 15:11:03;;;;;;;2.50;2.40;;;22.80;99.90;;;;;;5034407;28;20190;-77
2021/09/27 15:13:31;;;;;;;4.00;2.87;;;22.70;99.90;;;;;;5034321;28;20508;-77
2021/09/27 15:15:57;;;;;;;4.23;2.40;;;22.70;99.90;;;;;;5034319;28;20420;-77
2021/09/27 15:18:25;;;;;;;6.90;2.63;;;22.60;99.90;;;;;;5034074;28;20510;-77
2021/09/27 15:20:52;;;;;;;6.43;3.40;;;22.60;99.90;;;;;;5034413;28;20433;-76
2021/09/27 15:23:18;;;;;;;3.03;2.50;;;22.50;99.90;;;;;;5034170;28;20760;-76
2021/09/27 15:26:02;;;;;;;5.33;2.20;;;22.50;99.90;;;;;;5034450;28;20495;-77
2021/09/27 15:28:28;;;;;;;5.40;2.53;;;22.50;99.90;;;;;;5034048;28;20475;-77
2021/09/27 15:30:55;;;;;;;6.90;2.53;;;22.50;99.90;;;;;;5034137;28;20452;-78
2021/09/27 15:33:22;;;;;;;2.60;2.40;;;22.40;99.90;;;;;;5032416;28;20196;-77
2021/09/27 15:35:49;;;;;;;2.30;2.17;;;22.30;99.90;;;;;;5033168;28;20451;-77
2021/09/27 15:38:18;;;;;;;3.23;2.30;;;22.30;99.90;;;;;;5033687;28;20452;-76
2021/09/27 15:40:44;;;;;;;3.33;3.13;;;22.20;99.90;;;;;;5034194;28;20925;-76
2021/09/27 15:43:11;;;;;;;3.00;2.50;;;22.10;99.90;;;;;;5016069;28;20416;-77
2021/09/27 15:45:37;;;;;;;3.20;2.90;;;22.00;99.90;;;;;;5016227;28;20456;-76
2021/09/27 15:48:03;;;;;;;3.47;2.73;;;21.90;99.90;;;;;;5033797;28;20514;-76
2021/09/27 15:50:29;;;;;;;3.30;3.00;;;21.90;99.90;;;;;;5033735;28;20193;-76
2021/09/27 15:52:55;;;;;;;3.47;3.00;;;21.80;99.90;;;;;;5033758;28;20424;-77
2021/09/27 15:55:21;;;;;;;3.90;3.00;;;21.80;99.90;;;;;;5033621;28;20504;-77
2021/09/27 15:57:46;;;;;;;3.37;2.30;;;21.80;99.90;;;;;;5033317;28;20193;-75
2021/09/27 16:00:13;;;;;;;3.40;3.17;;;21.80;99.90;;;;;;5031912;28;20177;-76
2021/09/27 16:02:39;;;;;;;4.70;3.17;;;21.70;99.90;;;;;;5033413;28;20190;-77
2021/09/27 16:05:05;;;;;;;3.40;3.20;;;21.70;99.90;;;;;;5033521;28;20416;-75
2021/09/27 16:07:31;;;;;;;7.80;3.47;;;21.70;99.90;;;;;;5033668;28;20792;-75
2021/09/27 16:09:57;;;;;;;3.30;3.00;;;21.70;99.90;;;;;;5032881;28;20420;-76
2021/09/27 16:12:22;;;;;;;6.00;3.80;;;21.60;99.90;;;;;;5033325;28;20190;-76
2021/09/27 16:14:48;;;;;;;4.87;2.90;;;21.60;99.90;;;;;;5033280;28;20178;-76
2021/09/27 16:17:14;;;;;;;6.80;3.30;;;21.50;99.90;;;;;;5033301;28;20182;-77
2021/09/27 16:19:39;;;;;;;3.63;3.30;;;21.50;99.90;;;;;;5033344;28;20241;-76
2021/09/27 16:22:06;;;;;;;4.00;3.60;;;21.50;99.90;;;;;;5033013;28;20436;-77
2021/09/27 16:24:31;;;;;;;5.23;4.70;;;21.50;99.90;;;;;;5033243;28;20552;-77
2021/09/27 16:26:57;;;;;;;3.97;3.67;;;21.40;99.90;;;;;;5033257;28;20428;-77
2021/09/27 16:29:25;;;;;;;5.00;3.20;;;21.40;99.90;;;;;;5033100;28;20186;-77
2021/09/27 16:31:58;;;;;;;6.03;4.30;;;21.30;99.90;;;;;;5032477;28;20215;-76
2021/09/27 16:34:26;;;;;;;8.80;3.60;;;21.30;99.90;;;;;;5032659;28;20429;-76
2021/09/27 16:36:53;;;;;;;3.80;3.40;;;21.30;99.90;;;;;;5032705;28;20421;-76
2021/09/27 16:39:19;;;;;;;4.93;3.60;;;21.20;99.90;;;;;;5032654;28;20487;-76
2021/09/27 16:41:46;;;;;;;8.80;4.10;;;21.20;99.90;;;;;;5032509;28;20436;-75
2021/09/27 16:44:15;;;;;;;7.73;4.70;;;21.20;99.90;;;;;;5032682;28;20416;-76
2021/09/27 16:46:41;;;;;;;9.00;4.63;;;21.10;99.90;;;;;;5032620;28;20423;-76
2021/09/27 16:49:08;;;;;;;7.97;4.97;;;21.10;99.90;;;;;;5032155;28;20915;-76
2021/09/27 16:51:36;;;;;;;5.90;5.10;;;21.00;99.90;;;;;;5032473;28;20815;-76
2021/09/27 16:54:04;;;;;;;9.20;7.83;;;20.90;99.90;;;;;;5032230;28;20459;-76
2021/09/27 16:56:29;;;;;;;12.80;8.90;;;20.90;99.90;;;;;;5032250;28;20910;-76
2021/09/27 16:58:56;;;;;;;7.67;6.30;;;20.90;99.90;;;;;;5031873;28;20463;-74
2021/09/27 17:01:23;;;;;;;12.43;6.30;;;20.80;99.90;;;;;;5032362;28;20190;-76
2021/09/27 17:03:49;;;;;;;7.27;5.30;;;20.80;99.90;;;;;;5032192;28;20470;-76
2021/09/27 17:06:15;;;;;;;6.63;4.40;;;20.70;99.90;;;;;;5032316;28;20424;-75
2021/09/27 17:08:40;;;;;;;4.50;3.90;;;20.60;99.90;;;;;;5031943;28;20269;-75
2021/09/27 17:11:06;;;;;;;5.23;3.67;;;20.60;99.90;;;;;;5031824;28;20297;-77
2021/09/27 17:13:36;;;;;;;3.50;3.20;;;20.50;99.90;;;;;;5031975;28;20524;-76
2021/09/27 17:18:46;;;;;;;3.70;2.97;;;20.50;99.90;;;;;;5031594;28;20624;-76
2021/09/27 17:21:13;;;;;;;7.77;3.67;;;20.40;99.90;;;;;;5031702;28;20440;-77
2021/09/27 17:23:44;;;;;;;4.20;3.80;;;20.30;99.90;;;;;;5031492;28;20166;-77
2021/09/27 17:26:13;;;;;;;6.53;5.83;;;20.30;99.90;;;;;;5030409;28;20420;-76
2021/09/27 17:28:41;;;;;;;5.60;4.77;;;20.20;99.90;;;;;;5013816;28;20917;-76
2021/09/27 17:31:15;;;;;;;3.73;3.43;;;20.20;99.90;;;;;;5031415;28;20452;-76
2021/09/27 17:33:43;;;;;;;2.87;2.63;;;20.10;99.90;;;;;;5031755;28;21045;-77
2021/09/27 17:36:09;;;;;;;3.37;3.10;;;20.00;99.90;;;;;;5031681;28;20426;-77
2021/09/27 17:38:36;;;;;;;2.73;2.60;;;19.90;99.90;;;;;;5031476;28;20490;-78
2021/09/27 17:41:02;;;;;;;4.23;2.73;;;19.90;99.90;;;;;;5028610;28;20475;-79
2021/09/27 17:43:28;;;;;;;2.90;2.70;;;19.80;99.90;;;;;;5031254;28;20421;-78
2021/09/27 17:45:54;;;;;;;3.10;2.73;;;19.60;99.90;;;;;;5031548;28;20423;-79
2021/09/27 17:48:19;;;;;;;14.53;2.73;;;19.60;99.90;;;;;;5031370;28;20181;-76